Time;durP1;ratioP1;P1;durP2;ratioP2;P2;SDS_P1;SDS_P2;PMS_P1;PMS_P2;Temp;Humidity;BMP_temperature;BMP_pressure;BME280_temperature;BME280_humidity;BME280_pressure;Samples;Min_cycle;Max_cycle;Signal;HPM_P1;HPM_P2
2021/10/10 00:02:15;;;;;;;12.70;10.70;;;8.20;99.90;;;;;;4953569;28;20227;-54
2021/10/10 00:04:41;;;;;;;12.00;10.07;;;8.40;99.90;;;;;;4952684;29;20670;-54
2021/10/10 00:07:07;;;;;;;11.40;10.03;;;8.40;99.90;;;;;;4952650;29;20271;-54
2021/10/10 00:09:33;;;;;;;13.40;10.23;;;8.30;99.90;;;;;;4951564;28;20220;-54
2021/10/10 00:11:58;;;;;;;12.70;10.07;;;8.30;99.90;;;;;;4953675;29;20489;-55
2021/10/10 00:14:25;;;;;;;11.67;9.93;;;8.00;99.90;;;;;;4952350;29;20244;-54
2021/10/10 00:16:50;;;;;;;11.43;10.20;;;8.30;99.90;;;;;;4954291;28;20252;-55
2021/10/10 00:19:16;;;;;;;11.20;9.70;;;8.00;99.90;;;;;;4954030;28;20219;-55
2021/10/10 00:21:42;;;;;;;10.23;9.10;;;8.00;99.90;;;;;;4954254;29;20240;-54
2021/10/10 00:24:07;;;;;;;13.63;10.87;;;8.00;99.90;;;;;;4951684;29;20568;-55
2021/10/10 00:26:33;;;;;;;12.23;9.83;;;8.10;99.90;;;;;;4953587;28;20611;-55
2021/10/10 00:28:59;;;;;;;12.60;10.33;;;7.90;99.90;;;;;;4952534;28;20926;-55
2021/10/10 00:31:24;;;;;;;12.07;10.73;;;8.00;99.90;;;;;;4951707;29;20848;-54
2021/10/10 00:33:50;;;;;;;12.07;10.20;;;7.70;99.90;;;;;;4951069;29;20275;-54
2021/10/10 00:36:15;;;;;;;10.90;9.67;;;7.70;99.90;;;;;;4952904;29;20240;-54
2021/10/10 00:38:42;;;;;;;13.90;10.30;;;7.90;99.90;;;;;;4946890;28;20209;-55
2021/10/10 00:41:08;;;;;;;12.32;9.40;;;7.90;99.90;;;;;;4950841;28;20200;-55
2021/10/10 00:43:33;;;;;;;11.17;10.07;;;7.90;99.90;;;;;;4958477;28;20635;-54
2021/10/10 00:45:59;;;;;;;10.60;9.50;;;7.80;99.90;;;;;;4945059;28;20928;-54
2021/10/10 00:48:25;;;;;;;12.00;10.70;;;7.90;99.90;;;;;;4946534;29;20697;-55
2021/10/10 00:50:51;;;;;;;15.37;10.23;;;7.80;99.90;;;;;;4946110;29;20492;-55
2021/10/10 00:53:18;;;;;;;11.30;9.73;;;8.00;99.90;;;;;;4954153;28;20619;-55
2021/10/10 00:55:50;;;;;;;12.38;9.82;;;7.50;99.90;;;;;;4953537;29;20184;-54
2021/10/10 00:58:20;;;;;;;11.13;9.90;;;7.10;99.90;;;;;;4953454;28;20211;-54
2021/10/10 01:00:46;;;;;;;12.60;9.77;;;7.50;99.90;;;;;;4941964;29;20185;-55
2021/10/10 01:03:11;;;;;;;12.10;10.47;;;7.80;99.90;;;;;;4953675;28;20252;-55
2021/10/10 01:05:37;;;;;;;13.90;10.27;;;7.20;99.90;;;;;;4951907;28;20861;-55
2021/10/10 01:08:03;;;;;;;11.50;9.80;;;7.60;99.90;;;;;;4945413;28;20208;-55
2021/10/10 01:10:29;;;;;;;13.25;10.10;;;7.70;99.90;;;;;;4951075;28;20212;-55
2021/10/10 01:12:55;;;;;;;10.70;9.27;;;6.90;99.90;;;;;;4953602;29;20216;-54
2021/10/10 01:15:21;;;;;;;12.15;10.13;;;7.70;99.90;;;;;;4951239;28;20519;-55
2021/10/10 01:17:49;;;;;;;10.93;9.40;;;7.40;99.90;;;;;;4953513;28;20726;-54
2021/10/10 01:20:16;;;;;;;11.10;9.88;;;7.40;99.90;;;;;;4953135;28;20514;-54
2021/10/10 01:22:41;;;;;;;12.07;10.82;;;7.40;99.90;;;;;;4952900;29;20196;-54
2021/10/10 01:25:07;;;;;;;11.60;10.10;;;7.40;99.90;;;;;;4947275;29;20288;-54
2021/10/10 01:27:33;;;;;;;11.57;10.40;;;7.30;99.90;;;;;;4952569;28;20196;-53
2021/10/10 01:29:59;;;;;;;11.48;10.30;;;7.30;99.90;;;;;;4949854;28;20224;-55
2021/10/10 01:32:25;;;;;;;12.20;10.63;;;7.50;99.90;;;;;;4953308;29;20197;-55
2021/10/10 01:34:50;;;;;;;10.93;9.80;;;7.50;99.90;;;;;;4952709;28;20280;-54
2021/10/10 01:37:16;;;;;;;12.40;10.00;;;7.40;99.90;;;;;;4953210;28;20221;-55
2021/10/10 01:39:42;;;;;;;13.00;9.27;;;7.30;99.90;;;;;;4946306;29;21141;-54
2021/10/10 01:42:08;;;;;;;12.53;9.90;;;7.30;99.90;;;;;;4952713;28;20189;-54
2021/10/10 01:44:34;;;;;;;11.23;9.20;;;7.30;99.90;;;;;;4950314;28;22600;-55
2021/10/10 01:46:59;;;;;;;12.17;9.63;;;7.40;99.90;;;;;;4950909;29;20193;-55
2021/10/10 01:49:25;;;;;;;11.70;10.50;;;7.50;99.90;;;;;;4940231;29;20293;-54
2021/10/10 01:51:51;;;;;;;12.00;9.67;;;7.10;99.90;;;;;;4952468;29;20437;-55
2021/10/10 01:54:17;;;;;;;10.87;9.83;;;7.20;99.90;;;;;;4949189;29;20602;-54
2021/10/10 01:56:42;;;;;;;14.73;11.10;;;7.40;99.90;;;;;;4946941;29;20798;-55
2021/10/10 01:59:08;;;;;;;10.70;9.50;;;7.30;99.90;;;;;;4952311;28;20217;-54
2021/10/10 02:01:34;;;;;;;11.03;10.00;;;7.10;99.90;;;;;;4948361;28;20207;-53
2021/10/10 02:03:59;;;;;;;13.40;10.13;;;7.00;99.90;;;;;;4952497;28;20460;-54
2021/10/10 02:06:26;;;;;;;11.23;9.27;;;7.20;99.90;;;;;;4952275;28;20184;-54
2021/10/10 02:08:51;;;;;;;12.23;9.70;;;7.10;99.90;;;;;;4949405;28;20213;-55
2021/10/10 02:11:17;;;;;;;11.53;9.70;;;7.00;99.90;;;;;;4952503;28;20189;-54
2021/10/10 02:13:43;;;;;;;11.70;10.10;;;6.90;99.90;;;;;;4951513;28;20277;-54
2021/10/10 02:16:09;;;;;;;9.77;8.77;;;7.00;99.90;;;;;;4950207;29;20193;-53
2021/10/10 02:18:34;;;;;;;12.43;10.03;;;7.00;99.90;;;;;;4952244;28;20460;-54
2021/10/10 02:21:00;;;;;;;11.77;10.17;;;7.00;99.90;;;;;;4951536;28;20619;-55
2021/10/10 02:23:26;;;;;;;11.85;9.88;;;7.10;99.90;;;;;;4950008;28;20188;-54
2021/10/10 02:25:51;;;;;;;11.67;10.13;;;6.90;99.90;;;;;;4951958;29;20218;-54
2021/10/10 02:28:17;;;;;;;12.83;10.40;;;6.90;99.90;;;;;;4951038;28;20569;-54
2021/10/10 02:30:43;;;;;;;12.47;10.13;;;6.60;99.90;;;;;;4943365;28;20192;-55
2021/10/10 02:33:09;;;;;;;11.17;9.97;;;6.70;99.90;;;;;;4952309;28;20547;-54
2021/10/10 02:35:34;;;;;;;11.70;10.40;;;6.90;99.90;;;;;;4952009;29;20973;-55
2021/10/10 02:38:00;;;;;;;15.17;10.70;;;6.20;99.90;;;;;;4947493;28;20213;-54
2021/10/10 02:40:26;;;;;;;13.37;10.33;;;6.30;99.90;;;;;;4950335;29;20651;-54
2021/10/10 02:42:52;;;;;;;11.50;9.83;;;6.30;99.90;;;;;;4952228;29;20196;-54
2021/10/10 02:45:17;;;;;;;13.37;9.90;;;6.70;99.90;;;;;;4944405;28;20678;-55
2021/10/10 02:47:43;;;;;;;12.30;9.93;;;6.90;99.90;;;;;;4947778;28;20249;-55
2021/10/10 02:50:09;;;;;;;11.93;9.60;;;6.60;99.90;;;;;;4949622;28;20207;-54
2021/10/10 02:52:34;;;;;;;11.50;10.30;;;6.50;99.90;;;;;;4952015;28;20219;-55
2021/10/10 02:55:00;;;;;;;12.70;10.37;;;6.70;99.90;;;;;;4950556;29;20643;-55
2021/10/10 02:57:26;;;;;;;14.60;10.17;;;6.50;99.90;;;;;;4952161;28;20196;-55
2021/10/10 02:59:51;;;;;;;11.57;9.53;;;6.60;99.90;;;;;;4946668;28;20473;-54
2021/10/10 03:02:17;;;;;;;12.87;10.27;;;6.40;99.90;;;;;;4951619;28;20197;-54
2021/10/10 03:04:43;;;;;;;12.70;9.63;;;6.50;99.90;;;;;;4949709;28;20218;-54
2021/10/10 03:07:08;;;;;;;12.17;9.77;;;6.50;99.90;;;;;;4951824;29;20191;-55
2021/10/10 03:09:34;;;;;;;16.20;9.20;;;6.50;99.90;;;;;;4949911;28;20663;-55
2021/10/10 03:12:00;;;;;;;14.30;9.53;;;6.20;99.90;;;;;;4950289;28;20671;-54
2021/10/10 03:14:25;;;;;;;13.17;10.70;;;6.40;99.90;;;;;;4949286;28;20186;-54
2021/10/10 03:16:51;;;;;;;12.10;9.40;;;6.40;99.90;;;;;;4951818;29;20192;-54
2021/10/10 03:19:17;;;;;;;10.70;9.47;;;6.40;99.90;;;;;;4951301;28;20307;-55
2021/10/10 03:21:43;;;;;;;11.45;9.80;;;6.50;99.90;;;;;;4949237;28;20231;-55
2021/10/10 03:24:09;;;;;;;12.17;9.40;;;5.80;99.90;;;;;;4938313;29;20212;-55
2021/10/10 03:26:35;;;;;;;12.05;9.77;;;6.20;99.90;;;;;;4950989;28;20183;-54
2021/10/10 03:29:02;;;;;;;12.47;11.17;;;6.50;99.90;;;;;;4953545;28;20564;-55
2021/10/10 03:31:27;;;;;;;14.10;10.35;;;6.30;99.90;;;;;;4945477;28;20978;-55
2021/10/10 03:33:53;;;;;;;10.90;9.70;;;6.40;99.90;;;;;;4953733;28;20291;-55
2021/10/10 03:36:19;;;;;;;11.30;9.67;;;6.50;99.90;;;;;;4955450;28;20269;-55
2021/10/10 03:38:44;;;;;;;12.77;9.87;;;6.40;99.90;;;;;;4954278;28;20218;-54
2021/10/10 03:41:12;;;;;;;13.17;9.80;;;6.20;99.90;;;;;;4947742;29;20267;-55
2021/10/10 03:43:38;;;;;;;11.80;9.60;;;6.30;99.90;;;;;;4955030;29;20196;-55
2021/10/10 03:46:04;;;;;;;12.77;9.93;;;6.30;99.90;;;;;;4947782;29;20216;-54
2021/10/10 03:48:30;;;;;;;12.10;10.67;;;6.30;99.90;;;;;;4954403;29;20262;-54
2021/10/10 03:50:55;;;;;;;12.80;9.73;;;6.10;99.90;;;;;;4951879;29;20190;-55
2021/10/10 03:53:28;;;;;;;10.83;9.70;;;6.10;99.90;;;;;;4954824;28;20187;-55
2021/10/10 03:55:54;;;;;;;11.05;9.85;;;6.30;99.90;;;;;;4953747;28;20436;-55
2021/10/10 03:58:20;;;;;;;13.90;9.80;;;6.10;99.90;;;;;;4954321;28;20211;-55
2021/10/10 04:00:46;;;;;;;10.23;9.10;;;6.20;99.90;;;;;;4946692;28;20548;-55
2021/10/10 04:03:13;;;;;;;11.63;9.70;;;6.30;99.90;;;;;;4957580;28;20434;-55
2021/10/10 04:05:43;;;;;;;12.43;9.48;;;6.30;99.90;;;;;;4965919;28;20237;-53
2021/10/10 04:08:08;;;;;;;14.98;9.98;;;5.70;99.90;;;;;;4956462;28;20623;-54
2021/10/10 04:10:35;;;;;;;13.57;9.83;;;6.30;99.90;;;;;;4950615;29;20198;-55
2021/10/10 04:13:01;;;;;;;11.60;9.23;;;6.00;99.90;;;;;;4950804;29;20197;-55
2021/10/10 04:15:26;;;;;;;14.23;10.40;;;6.00;99.90;;;;;;4952752;28;21721;-54
2021/10/10 04:17:52;;;;;;;11.57;9.40;;;6.00;99.90;;;;;;4954132;28;20648;-54
2021/10/10 04:20:18;;;;;;;10.80;9.57;;;6.10;99.90;;;;;;4951328;28;20192;-55
2021/10/10 04:22:44;;;;;;;15.13;10.05;;;5.90;99.90;;;;;;4954173;29;20204;-55
2021/10/10 04:25:11;;;;;;;11.10;9.50;;;6.00;99.90;;;;;;4953756;28;20238;-54
2021/10/10 04:27:38;;;;;;;12.38;10.00;;;6.00;99.90;;;;;;4954098;29;20185;-54
2021/10/10 04:30:09;;;;;;;10.70;9.50;;;5.50;99.90;;;;;;4945563;28;20470;-54
2021/10/10 04:32:35;;;;;;;12.65;10.35;;;6.00;99.90;;;;;;4954112;28;20186;-55
2021/10/10 04:35:00;;;;;;;13.80;8.87;;;5.90;99.90;;;;;;4954909;28;20295;-54
2021/10/10 04:37:26;;;;;;;13.53;10.67;;;6.20;99.90;;;;;;4953911;28;20439;-54
2021/10/10 04:39:52;;;;;;;11.90;9.40;;;5.80;99.90;;;;;;4955230;28;20226;-54
2021/10/10 04:42:18;;;;;;;11.13;9.50;;;5.90;99.90;;;;;;4954088;28;20278;-54
2021/10/10 04:44:43;;;;;;;11.60;10.30;;;6.00;99.90;;;;;;4951865;28;20293;-53
2021/10/10 04:47:09;;;;;;;10.50;9.40;;;5.30;99.90;;;;;;4953428;28;20196;-53
2021/10/10 04:49:35;;;;;;;11.13;9.67;;;5.80;99.90;;;;;;4956304;28;20234;-53
2021/10/10 04:52:02;;;;;;;12.83;10.60;;;5.30;99.90;;;;;;4955061;28;20478;-55
2021/10/10 04:54:29;;;;;;;11.38;10.15;;;5.70;99.90;;;;;;4951828;28;20787;-53
2021/10/10 04:56:54;;;;;;;13.95;9.20;;;5.80;99.90;;;;;;4958380;28;20193;-54
2021/10/10 04:59:20;;;;;;;13.10;9.87;;;5.80;99.90;;;;;;4954030;28;20217;-54
2021/10/10 05:01:46;;;;;;;13.30;9.90;;;5.80;99.90;;;;;;4953660;28;20188;-52
2021/10/10 05:04:11;;;;;;;12.40;10.13;;;6.00;99.90;;;;;;4951540;28;20337;-53
2021/10/10 05:06:37;;;;;;;10.80;9.70;;;5.90;99.90;;;;;;4954060;28;20201;-54
2021/10/10 05:09:03;;;;;;;15.67;9.50;;;5.90;99.90;;;;;;4950930;28;20215;-54
2021/10/10 05:11:28;;;;;;;12.37;9.67;;;5.70;99.90;;;;;;4952564;28;20187;-54
2021/10/10 05:13:54;;;;;;;11.70;9.53;;;5.70;99.90;;;;;;4953944;28;20203;-54
2021/10/10 05:16:20;;;;;;;12.37;10.10;;;5.80;99.90;;;;;;4957226;28;20270;-54
2021/10/10 05:18:45;;;;;;;12.30;10.60;;;5.80;99.90;;;;;;4953240;28;20260;-54
2021/10/10 05:21:11;;;;;;;13.50;10.33;;;5.70;99.90;;;;;;4947535;28;20198;-53
2021/10/10 05:23:37;;;;;;;12.73;10.13;;;5.80;99.90;;;;;;4953577;28;20753;-53
2021/10/10 05:26:03;;;;;;;13.10;9.47;;;5.40;99.90;;;;;;4952943;28;20912;-53
2021/10/10 05:28:28;;;;;;;12.87;10.17;;;5.50;99.90;;;;;;4954050;28;20206;-52
2021/10/10 05:30:54;;;;;;;12.17;10.00;;;4.90;99.90;;;;;;4950909;28;20469;-53
2021/10/10 05:33:20;;;;;;;10.83;9.73;;;5.50;99.90;;;;;;4959968;28;20187;-53
2021/10/10 05:35:46;;;;;;;10.95;9.82;;;5.40;99.90;;;;;;4953412;28;20200;-53
2021/10/10 05:38:13;;;;;;;10.93;9.70;;;5.60;99.90;;;;;;4948330;28;20221;-53
2021/10/10 05:40:38;;;;;;;13.35;10.88;;;5.40;99.90;;;;;;4956152;28;20548;-53
2021/10/10 05:43:05;;;;;;;13.20;10.10;;;5.40;99.90;;;;;;4954523;28;20228;-53
2021/10/10 05:45:30;;;;;;;12.95;10.38;;;5.50;99.90;;;;;;4947772;28;20284;-53
2021/10/10 05:47:56;;;;;;;13.33;10.43;;;5.40;99.90;;;;;;4950379;28;20272;-53
2021/10/10 05:50:22;;;;;;;14.50;10.60;;;5.60;99.90;;;;;;4950757;28;20533;-53
2021/10/10 05:52:49;;;;;;;15.27;11.27;;;5.40;99.90;;;;;;4953782;28;20221;-54
2021/10/10 05:55:16;;;;;;;13.95;10.63;;;5.50;99.90;;;;;;4950056;28;20582;-53
2021/10/10 05:57:50;;;;;;;11.15;9.60;;;5.50;99.90;;;;;;4953296;28;20186;-53
2021/10/10 06:00:18;;;;;;;11.30;9.60;;;5.30;99.90;;;;;;4940141;28;20186;-53
2021/10/10 06:02:47;;;;;;;13.00;10.25;;;5.50;99.90;;;;;;4951648;28;20554;-53
2021/10/10 06:05:15;;;;;;;11.20;10.00;;;5.60;99.90;;;;;;4949135;28;20243;-54
2021/10/10 06:07:41;;;;;;;12.27;9.90;;;5.30;99.90;;;;;;4953194;28;20188;-53
2021/10/10 06:10:08;;;;;;;15.63;11.20;;;5.60;99.90;;;;;;4951936;28;20278;-53
2021/10/10 06:12:36;;;;;;;12.40;10.15;;;5.60;99.90;;;;;;4949133;29;20185;-53
2021/10/10 06:15:04;;;;;;;13.27;10.77;;;5.40;99.90;;;;;;4952799;28;20189;-54
2021/10/10 06:17:34;;;;;;;13.20;10.70;;;5.40;99.90;;;;;;4952489;28;20593;-53
2021/10/10 06:20:02;;;;;;;13.50;11.18;;;5.40;99.90;;;;;;4949573;29;20283;-54
2021/10/10 06:22:27;;;;;;;11.45;10.25;;;5.70;99.90;;;;;;4951852;28;20201;-53
2021/10/10 06:24:53;;;;;;;11.57;10.30;;;5.40;99.90;;;;;;4952918;28;20296;-53
2021/10/10 06:27:20;;;;;;;14.70;11.93;;;5.50;99.90;;;;;;4945514;28;20735;-54
2021/10/10 06:29:47;;;;;;;13.07;10.70;;;5.50;99.90;;;;;;4942237;28;20241;-52
2021/10/10 06:32:13;;;;;;;13.55;11.38;;;5.10;99.90;;;;;;4952330;28;20438;-53
2021/10/10 06:34:39;;;;;;;11.10;10.00;;;5.10;99.90;;;;;;4952298;28;20323;-53
2021/10/10 06:37:04;;;;;;;16.30;11.07;;;5.60;99.90;;;;;;4951908;28;21052;-55
2021/10/10 06:39:30;;;;;;;13.40;10.73;;;5.70;99.90;;;;;;4948957;28;20236;-55
2021/10/10 06:41:56;;;;;;;12.40;10.80;;;5.70;99.90;;;;;;4956482;28;20583;-55
2021/10/10 06:44:21;;;;;;;15.50;11.57;;;5.70;99.90;;;;;;4951661;28;20468;-54
2021/10/10 06:46:47;;;;;;;14.77;11.47;;;5.80;99.90;;;;;;4949219;28;20274;-55
2021/10/10 06:49:13;;;;;;;12.97;11.00;;;5.80;99.90;;;;;;4956533;28;20205;-55
2021/10/10 06:51:39;;;;;;;12.43;10.93;;;5.70;99.90;;;;;;4954762;28;20191;-55
2021/10/10 06:54:05;;;;;;;13.77;11.73;;;5.80;99.90;;;;;;4946391;28;20194;-54
2021/10/10 06:56:30;;;;;;;13.53;11.40;;;6.00;99.90;;;;;;4951700;28;20178;-55
2021/10/10 06:58:56;;;;;;;15.70;11.60;;;6.10;99.90;;;;;;4952453;28;20461;-54
2021/10/10 07:01:22;;;;;;;12.53;11.23;;;6.30;99.90;;;;;;4947389;28;20270;-54
2021/10/10 07:03:47;;;;;;;21.23;11.57;;;6.40;99.90;;;;;;4949607;28;20642;-55
2021/10/10 07:06:13;;;;;;;14.43;12.47;;;6.50;99.90;;;;;;4952241;28;20269;-54
2021/10/10 07:08:39;;;;;;;13.90;11.90;;;6.60;99.90;;;;;;4954553;28;20249;-53
2021/10/10 07:11:04;;;;;;;14.60;12.30;;;6.90;99.90;;;;;;4965130;28;20259;-53
2021/10/10 07:13:30;;;;;;;16.60;12.53;;;6.80;99.90;;;;;;4954970;28;20251;-54
2021/10/10 07:15:56;;;;;;;15.13;12.17;;;6.90;99.90;;;;;;4948623;29;20188;-54
2021/10/10 07:18:27;;;;;;;15.00;12.47;;;6.80;99.90;;;;;;4954048;28;20199;-54
2021/10/10 07:23:55;;;;;;;15.77;12.98;;;7.10;99.90;;;;;;4955562;28;20546;-54
2021/10/10 07:26:24;;;;;;;16.15;13.25;;;7.00;99.90;;;;;;4950043;28;20185;-54
2021/10/10 07:28:53;;;;;;;15.13;13.50;;;7.40;99.90;;;;;;4948824;29;20209;-54
2021/10/10 07:31:19;;;;;;;16.65;13.32;;;7.30;99.90;;;;;;4954083;28;20597;-54
2021/10/10 07:33:45;;;;;;;14.95;12.98;;;7.20;99.90;;;;;;4957280;28;20188;-54
2021/10/10 07:36:12;;;;;;;15.00;13.60;;;7.10;99.90;;;;;;4954548;28;20538;-54
2021/10/10 07:38:38;;;;;;;16.70;14.38;;;7.30;99.90;;;;;;4958678;28;20216;-54
2021/10/10 07:41:04;;;;;;;15.43;13.50;;;7.60;99.90;;;;;;4946336;29;20181;-55
2021/10/10 07:43:31;;;;;;;17.52;13.93;;;8.00;99.90;;;;;;4954908;28;20411;-54
2021/10/10 07:48:42;;;;;;;19.00;13.45;;;7.90;99.90;;;;;;4954384;28;20216;-54
2021/10/10 07:51:07;;;;;;;15.90;13.90;;;8.20;99.90;;;;;;4952931;28;20189;-54
2021/10/10 07:53:33;;;;;;;17.90;13.83;;;8.20;99.90;;;;;;4950002;28;20199;-53
2021/10/10 07:55:58;;;;;;;15.53;12.97;;;8.20;99.90;;;;;;4953207;28;20604;-52
2021/10/10 07:58:24;;;;;;;16.20;12.70;;;8.30;99.90;;;;;;4954967;28;20213;-52
2021/10/10 08:00:50;;;;;;;18.63;15.00;;;8.20;99.90;;;;;;4954097;28;20216;-52
2021/10/10 08:03:15;;;;;;;16.80;15.00;;;8.30;99.90;;;;;;4955665;28;20317;-52
2021/10/10 08:05:43;;;;;;;17.57;13.77;;;8.40;99.90;;;;;;4956515;28;20683;-52
2021/10/10 08:08:09;;;;;;;17.85;13.65;;;8.40;99.90;;;;;;4959703;28;20681;-55
2021/10/10 08:10:36;;;;;;;14.68;12.57;;;8.50;99.90;;;;;;4959327;28;20270;-55
2021/10/10 08:13:02;;;;;;;17.17;13.63;;;8.80;99.90;;;;;;4954484;28;20201;-54
2021/10/10 08:15:27;;;;;;;16.67;13.30;;;8.90;99.90;;;;;;4952871;28;20203;-55
2021/10/10 08:17:53;;;;;;;14.40;12.90;;;9.00;99.90;;;;;;4953872;28;20227;-55
2021/10/10 08:20:19;;;;;;;17.10;14.17;;;9.20;99.90;;;;;;4949686;28;20193;-55
2021/10/10 08:22:47;;;;;;;15.93;13.55;;;9.30;99.90;;;;;;4954305;28;20255;-54
2021/10/10 08:25:14;;;;;;;15.93;14.23;;;9.60;99.90;;;;;;4948670;28;20208;-54
2021/10/10 08:27:42;;;;;;;20.02;14.02;;;9.60;99.90;;;;;;4953222;28;20189;-55
2021/10/10 08:30:16;;;;;;;17.73;13.60;;;9.80;99.90;;;;;;4956217;28;20230;-56
2021/10/10 08:32:45;;;;;;;17.25;13.07;;;10.00;99.90;;;;;;4955708;28;20185;-56
2021/10/10 08:35:11;;;;;;;16.55;12.27;;;10.20;99.90;;;;;;4953889;28;20196;-56
2021/10/10 08:37:37;;;;;;;16.05;12.10;;;10.30;99.90;;;;;;4954226;28;20204;-55
2021/10/10 08:40:03;;;;;;;14.50;13.07;;;10.50;99.90;;;;;;4953826;28;20577;-55
2021/10/10 08:42:33;;;;;;;19.75;15.20;;;10.60;99.90;;;;;;4956954;28;21023;-56
2021/10/10 08:45:13;;;;;;;14.65;13.15;;;10.50;99.90;;;;;;4951387;28;20209;-55
2021/10/10 08:47:43;;;;;;;16.83;14.02;;;10.60;99.90;;;;;;4951907;28;20183;-56
2021/10/10 08:50:16;;;;;;;17.90;13.35;;;10.60;99.90;;;;;;4952788;28;20206;-55
2021/10/10 08:52:44;;;;;;;14.65;12.15;;;11.20;99.90;;;;;;4953053;28;20190;-55
2021/10/10 08:55:11;;;;;;;13.95;11.98;;;11.20;99.90;;;;;;4947973;28;20197;-56
2021/10/10 08:57:37;;;;;;;17.27;14.02;;;11.30;99.90;;;;;;4955989;28;20203;-55
2021/10/10 09:00:10;;;;;;;14.98;12.35;;;11.30;99.90;;;;;;4949909;28;20685;-56
2021/10/10 09:02:38;;;;;;;18.08;13.50;;;11.40;99.90;;;;;;4951766;29;20602;-55
2021/10/10 09:05:10;;;;;;;14.38;12.35;;;11.50;99.90;;;;;;4953486;28;20260;-55
2021/10/10 09:07:36;;;;;;;15.35;12.43;;;11.70;99.90;;;;;;4952396;28;20707;-55
2021/10/10 09:10:27;;;;;;;16.73;13.57;;;11.90;99.90;;;;;;4948040;28;20218;-55
2021/10/10 09:13:13;;;;;;;14.95;13.40;;;12.20;99.00;;;;;;4962366;28;20285;-55
2021/10/10 09:15:48;;;;;;;16.77;12.85;;;12.00;98.10;;;;;;4959111;28;20208;-55
2021/10/10 09:18:14;;;;;;;18.48;12.20;;;12.70;98.50;;;;;;4953092;28;20215;-54
2021/10/10 09:20:43;;;;;;;13.32;11.90;;;12.80;98.00;;;;;;4951480;28;20325;-56
2021/10/10 09:23:30;;;;;;;14.70;13.13;;;12.70;97.80;;;;;;4953264;28;20195;-54
2021/10/10 09:25:58;;;;;;;14.63;13.13;;;12.90;97.40;;;;;;4951752;28;20239;-54
2021/10/10 09:28:26;;;;;;;14.48;12.98;;;12.90;96.80;;;;;;4953757;28;20197;-57
2021/10/10 09:30:58;;;;;;;14.05;12.30;;;13.10;96.40;;;;;;4956492;28;20181;-56
2021/10/10 09:33:49;;;;;;;13.95;12.45;;;13.10;96.40;;;;;;4953886;28;20239;-54
2021/10/10 09:36:25;;;;;;;15.63;12.73;;;13.30;96.20;;;;;;4946050;28;20203;-54
2021/10/10 09:41:47;;;;;;;15.95;12.43;;;14.00;95.20;;;;;;4952810;28;20184;-54
2021/10/10 09:44:21;;;;;;;13.02;11.63;;;14.40;95.00;;;;;;4956611;28;20204;-53
2021/10/10 09:46:49;;;;;;;14.02;12.30;;;14.30;92.80;;;;;;4950854;29;20209;-54
2021/10/10 09:49:32;;;;;;;13.13;11.80;;;14.40;92.60;;;;;;4950238;28;20851;-54
2021/10/10 09:52:14;;;;;;;13.77;11.73;;;15.10;91.60;;;;;;4948590;28;20184;-53
2021/10/10 09:54:59;;;;;;;12.68;10.95;;;15.20;90.90;;;;;;4943392;28;20268;-54
2021/10/10 09:57:29;;;;;;;13.43;12.10;;;15.90;88.20;;;;;;4952994;28;20725;-54
2021/10/10 09:59:55;;;;;;;15.32;11.65;;;16.30;88.00;;;;;;4955007;28;20814;-53
2021/10/10 10:02:42;;;;;;;12.80;10.35;;;15.90;88.90;;;;;;4953731;28;20287;-54
2021/10/10 10:05:09;;;;;;;11.45;10.25;;;15.60;88.40;;;;;;4953897;28;20588;-53
2021/10/10 10:07:35;;;;;;;13.27;10.52;;;15.60;85.00;;;;;;4951375;28;20670;-54
2021/10/10 10:10:01;;;;;;;11.48;10.23;;;15.20;84.90;;;;;;4955458;28;20295;-53
2021/10/10 10:12:28;;;;;;;11.13;9.85;;;15.20;86.10;;;;;;4952002;28;20189;-53
2021/10/10 10:14:57;;;;;;;13.35;10.40;;;15.10;85.30;;;;;;4955270;28;20195;-53
2021/10/10 10:17:23;;;;;;;10.88;9.77;;;14.80;85.40;;;;;;4953127;28;20297;-53
2021/10/10 10:19:49;;;;;;;10.93;9.10;;;14.90;86.10;;;;;;4951255;28;20220;-53
2021/10/10 10:22:17;;;;;;;12.32;10.40;;;14.70;87.30;;;;;;4948801;28;20631;-53
2021/10/10 10:24:46;;;;;;;13.77;9.18;;;14.50;87.60;;;;;;4953112;28;20220;-53
2021/10/10 10:27:13;;;;;;;15.25;10.23;;;14.70;88.20;;;;;;4958999;28;20678;-53
2021/10/10 10:29:43;;;;;;;11.52;9.90;;;14.70;86.90;;;;;;4944319;28;20209;-53
2021/10/10 10:32:10;;;;;;;13.20;11.00;;;15.00;87.90;;;;;;4948751;28;20181;-53
2021/10/10 10:34:36;;;;;;;12.95;11.57;;;14.90;87.20;;;;;;4953667;28;20255;-53
2021/10/10 10:37:11;;;;;;;13.13;11.27;;;14.80;88.60;;;;;;4955037;28;20212;-53
2021/10/10 10:39:39;;;;;;;13.38;11.70;;;14.70;89.90;;;;;;4949312;28;20208;-51
2021/10/10 10:42:13;;;;;;;12.75;11.45;;;14.80;90.80;;;;;;4960727;28;20626;-52
2021/10/10 10:44:48;;;;;;;14.25;12.75;;;15.00;91.00;;;;;;4946334;28;20215;-52
2021/10/10 10:47:40;;;;;;;16.88;14.00;;;14.70;91.30;;;;;;4957950;28;20274;-52
2021/10/10 10:50:19;;;;;;;15.55;12.00;;;15.10;91.00;;;;;;4946352;28;20250;-52
2021/10/10 10:52:58;;;;;;;12.75;11.45;;;15.40;90.40;;;;;;4951203;28;20612;-55
2021/10/10 10:55:38;;;;;;;13.38;11.50;;;16.80;86.40;;;;;;4951895;28;20225;-55
2021/10/10 10:58:10;;;;;;;14.57;13.13;;;17.40;83.20;;;;;;4948776;28;20203;-55
2021/10/10 11:00:36;;;;;;;14.85;11.98;;;18.00;79.90;;;;;;4942168;28;20227;-54
2021/10/10 11:03:24;;;;;;;11.20;10.20;;;18.10;80.30;;;;;;4951766;29;20213;-54
2021/10/10 11:06:16;;;;;;;11.70;10.52;;;18.50;77.80;;;;;;4951833;29;20211;-55
2021/10/10 11:08:43;;;;;;;14.38;10.93;;;18.90;75.20;;;;;;4950802;28;20220;-56
2021/10/10 11:11:25;;;;;;;13.45;11.05;;;18.90;73.50;;;;;;4947915;28;20195;-55
2021/10/10 11:13:58;;;;;;;12.93;11.40;;;18.60;75.10;;;;;;4950339;28;20192;-55
2021/10/10 11:16:30;;;;;;;14.38;12.02;;;18.10;76.70;;;;;;4949795;28;20186;-56
2021/10/10 11:18:58;;;;;;;15.35;11.93;;;17.70;78.80;;;;;;4944422;28;20583;-55
2021/10/10 11:21:32;;;;;;;11.77;10.57;;;17.30;79.80;;;;;;4942551;28;20208;-55
2021/10/10 11:24:00;;;;;;;14.63;12.98;;;17.10;80.20;;;;;;4960261;28;20219;-54
2021/10/10 11:26:27;;;;;;;13.40;11.30;;;16.70;81.30;;;;;;4952925;28;20686;-55
2021/10/10 11:28:56;;;;;;;15.25;11.50;;;16.30;83.40;;;;;;4956481;28;20208;-55
2021/10/10 11:31:24;;;;;;;12.57;11.27;;;16.20;84.20;;;;;;4961228;28;20218;-55
2021/10/10 11:33:56;;;;;;;13.45;12.15;;;16.20;83.20;;;;;;4954675;28;20717;-54
2021/10/10 11:36:41;;;;;;;13.48;12.00;;;16.00;83.70;;;;;;4950539;28;20202;-55
2021/10/10 11:39:11;;;;;;;14.77;12.63;;;15.90;85.60;;;;;;4946245;28;20686;-55
2021/10/10 11:41:49;;;;;;;17.88;12.82;;;15.80;86.60;;;;;;4949657;28;20189;-54
2021/10/10 11:44:18;;;;;;;14.27;12.38;;;15.40;85.90;;;;;;4950781;29;20592;-53
2021/10/10 11:46:54;;;;;;;14.65;12.35;;;15.60;86.50;;;;;;4949785;28;20272;-55
2021/10/10 11:49:45;;;;;;;16.10;12.00;;;15.30;87.00;;;;;;4951128;28;20204;-54
2021/10/10 11:55:01;;;;;;;12.70;11.20;;;15.80;87.20;;;;;;4951989;28;20204;-55
2021/10/10 11:57:28;;;;;;;15.02;12.18;;;15.60;85.90;;;;;;4955541;28;20181;-54
2021/10/10 12:00:01;;;;;;;12.60;11.27;;;15.70;86.50;;;;;;4951689;28;20205;-54
2021/10/10 12:02:35;;;;;;;13.70;11.82;;;15.70;87.00;;;;;;4954517;29;20193;-54
2021/10/10 12:05:06;;;;;;;15.40;12.05;;;15.60;86.90;;;;;;4953972;28;20200;-55
2021/10/10 12:07:33;;;;;;;12.02;10.80;;;15.70;86.00;;;;;;4953533;28;20617;-55
2021/10/10 12:09:59;;;;;;;13.50;10.45;;;16.00;85.20;;;;;;4948313;28;20293;-55
2021/10/10 12:12:25;;;;;;;14.18;11.30;;;16.00;83.50;;;;;;4947657;29;20632;-55
2021/10/10 12:14:53;;;;;;;11.63;10.38;;;15.90;84.40;;;;;;4955458;28;20200;-54
2021/10/10 12:17:43;;;;;;;12.00;10.75;;;16.00;83.10;;;;;;4961100;28;20251;-55
2021/10/10 12:20:18;;;;;;;17.00;10.10;;;16.20;84.30;;;;;;4956331;28;20223;-55
2021/10/10 12:22:58;;;;;;;10.93;9.80;;;16.10;83.10;;;;;;4954961;28;20690;-54
2021/10/10 12:25:35;;;;;;;12.50;10.70;;;16.10;82.00;;;;;;4956790;28;20211;-54
2021/10/10 12:28:13;;;;;;;11.52;9.57;;;16.00;82.10;;;;;;4956228;28;20237;-54
2021/10/10 12:31:02;;;;;;;13.35;9.52;;;15.90;81.70;;;;;;4946552;28;20589;-55
2021/10/10 12:33:34;;;;;;;12.50;10.70;;;16.20;80.90;;;;;;4956394;28;20212;-54
2021/10/10 12:36:21;;;;;;;12.27;9.63;;;16.10;81.20;;;;;;4954381;28;20320;-55
2021/10/10 12:38:47;;;;;;;10.98;9.63;;;16.30;78.90;;;;;;4953264;28;20875;-54
2021/10/10 12:41:25;;;;;;;13.23;9.37;;;16.20;79.80;;;;;;4957252;28;20274;-55
2021/10/10 12:43:53;;;;;;;10.65;9.55;;;16.10;79.70;;;;;;4950273;28;20857;-54
2021/10/10 12:46:20;;;;;;;10.68;9.68;;;16.10;80.40;;;;;;4946132;28;20259;-54
2021/10/10 12:49:06;;;;;;;10.82;8.98;;;16.00;79.90;;;;;;4949314;28;20204;-55
2021/10/10 12:51:35;;;;;;;11.95;9.95;;;16.00;79.70;;;;;;4953549;28;20257;-55
2021/10/10 12:54:19;;;;;;;11.57;9.57;;;15.90;78.60;;;;;;4952200;28;20593;-55